Time;durP1;ratioP1;P1;durP2;ratioP2;P2;SDS_P1;SDS_P2;PMS_P1;PMS_P2;Temp;Humidity;BMP_temperature;BMP_pressure;BME280_temperature;BME280_humidity;BME280_pressure;Samples;Min_cycle;Max_cycle;Signal;HPM_P1;HPM_P2
2023/06/08 00:01:46;;;;;;;15.30;5.90;;;;;;;;;;4978863;28;20101;-84
2023/06/08 00:04:12;;;;;;;15.00;6.18;;;;;;;;;;4985051;28;20057;-83
2023/06/08 00:06:40;;;;;;;11.55;5.47;;;;;;;;;;4982298;28;20061;-83
2023/06/08 00:09:07;;;;;;;14.70;5.90;;;;;;;;;;4969790;28;20180;-83
2023/06/08 00:11:33;;;;;;;14.88;5.70;;;13.00;99.90;;;;;;4988519;28;20147;-81
2023/06/08 00:13:59;;;;;;;14.95;6.75;;;;;;;;;;4969511;28;20630;-82
2023/06/08 00:16:27;;;;;;;15.23;5.43;;;;;;;;;;4966319;28;20053;-83
2023/06/08 00:18:56;;;;;;;15.73;6.13;;;;;;;;;;4984376;28;20042;-82
2023/06/08 00:21:26;;;;;;;13.05;6.18;;;;;;;;;;4986067;28;20045;-82
2023/06/08 00:23:52;;;;;;;16.02;6.07;;;;;;;;;;4984088;28;20145;-83
2023/06/08 00:26:18;;;;;;;14.52;6.72;;;;;;;;;;4984898;28;20042;-82
2023/06/08 00:28:47;;;;;;;16.13;5.65;;;;;;;;;;4980035;28;20132;-81
2023/06/08 00:31:13;;;;;;;12.15;6.07;;;;;;;;;;4981331;28;20177;-82
2023/06/08 00:33:39;;;;;;;12.63;6.20;;;;;;;;;;4984269;28;20128;-82
2023/06/08 00:36:05;;;;;;;17.13;6.28;;;;;;;;;;4980867;28;20042;-82
2023/06/08 00:38:32;;;;;;;12.45;6.25;;;;;;;;;;4963162;28;20046;-81
2023/06/08 00:40:57;;;;;;;12.60;6.45;;;;;;;;;;4983048;28;20053;-84
2023/06/08 00:43:24;;;;;;;12.38;6.07;;;;;;;;;;4982444;28;20029;-81
2023/06/08 00:45:51;;;;;;;14.63;7.00;;;;;;;;;;4982106;28;20056;-82
2023/06/08 00:48:17;;;;;;;14.35;6.82;;;;;;;;;;4980957;28;20046;-82
2023/06/08 00:50:46;;;;;;;13.38;7.15;;;;;;;;;;4985458;28;20034;-82
2023/06/08 00:53:12;;;;;;;13.63;7.05;;;;;;;;;;4963827;28;20046;-83
2023/06/08 00:55:38;;;;;;;15.38;7.03;;;12.70;99.90;;;;;;4980134;28;20050;-81
2023/06/08 00:58:04;;;;;;;18.65;8.02;;;;;;;;;;4984004;28;20423;-83
2023/06/08 01:00:32;;;;;;;16.75;7.50;;;;;;;;;;4981022;28;20046;-82
2023/06/08 01:02:58;;;;;;;13.48;7.50;;;;;;;;;;4977716;28;20096;-82
2023/06/08 01:05:24;;;;;;;17.38;7.90;;;;;;;;;;4976392;28;20042;-82
2023/06/08 01:08:04;;;;;;;15.70;7.53;;;;;;;;;;4985004;28;20046;-81
2023/06/08 01:10:42;;;;;;;18.88;7.53;;;;;;;;;;4979106;28;20053;-82
2023/06/08 01:13:25;;;;;;;14.23;6.47;;;12.60;99.90;;;;;;4982616;28;20050;-82
2023/06/08 01:15:52;;;;;;;16.58;8.25;;;;;;;;;;4981088;28;20461;-82
2023/06/08 01:18:23;;;;;;;16.13;6.82;;;;;;;;;;4966851;28;20077;-81
2023/06/08 01:21:11;;;;;;;19.08;6.68;;;;;;;;;;4981805;28;20101;-82
2023/06/08 01:23:55;;;;;;;14.75;7.72;;;12.60;99.90;;;;;;4987537;28;20103;-82
2023/06/08 01:26:21;;;;;;;13.98;6.80;;;;;;;;;;4964513;28;20048;-81
2023/06/08 01:28:50;;;;;;;14.65;7.28;;;;;;;;;;4984088;28;20214;-81
2023/06/08 01:31:16;;;;;;;14.52;7.40;;;;;;;;;;4980807;28;20141;-81
2023/06/08 01:33:43;;;;;;;13.63;7.22;;;;;;;;;;4977122;28;20046;-82
2023/06/08 01:36:13;;;;;;;15.70;6.45;;;;;;;;;;4979034;28;20500;-82
2023/06/08 01:38:53;;;;;;;21.65;8.05;;;12.70;99.90;;;;;;4980196;28;20081;-83
2023/06/08 01:41:23;;;;;;;13.35;7.05;;;12.50;99.90;;;;;;4983630;28;20220;-82
2023/06/08 01:43:50;;;;;;;15.82;7.60;;;;;;;;;;4980233;28;20084;-82
2023/06/08 01:46:18;;;;;;;13.07;7.25;;;12.40;99.90;;;;;;4984864;28;20072;-81
2023/06/08 01:48:44;;;;;;;17.52;6.93;;;;;;;;;;4977633;28;20084;-84
2023/06/08 01:51:12;;;;;;;13.13;6.60;;;12.70;99.90;;;;;;4969303;28;20424;-81
2023/06/08 01:53:38;;;;;;;14.38;8.10;;;;;;;;;;4983700;28;20077;-82
2023/06/08 01:56:04;;;;;;;12.27;6.55;;;;;;;;;;4980968;28;20073;-83
2023/06/08 01:58:30;;;;;;;13.73;6.32;;;;;;;;;;4982493;28;20077;-81
2023/06/08 02:00:56;;;;;;;15.02;7.15;;;;;;;;;;4977091;28;20073;-82
2023/06/08 02:03:22;;;;;;;14.75;7.03;;;;;;;;;;4975115;28;20050;-82
2023/06/08 02:05:48;;;;;;;19.83;6.72;;;;;;;;;;4987862;28;20188;-84
2023/06/08 02:08:14;;;;;;;17.67;6.82;;;;;;;;;;4986960;28;20053;-81
2023/06/08 02:10:40;;;;;;;13.02;6.38;;;;;;;;;;4971007;28;20046;-82
2023/06/08 02:13:06;;;;;;;12.60;6.57;;;;;;;;;;4975046;28;20061;-82
2023/06/08 02:15:31;;;;;;;13.20;6.70;;;12.40;99.90;;;;;;4987110;28;20404;-82
2023/06/08 02:17:59;;;;;;;17.10;7.05;;;;;;;;;;4987440;28;20056;-82
2023/06/08 02:20:25;;;;;;;13.48;7.13;;;;;;;;;;4986799;28;20049;-85
2023/06/08 02:22:51;;;;;;;14.10;7.07;;;;;;;;;;4990325;28;20128;-83
2023/06/08 02:25:17;;;;;;;16.05;7.53;;;;;;;;;;4980168;28;20124;-81
2023/06/08 02:27:43;;;;;;;13.00;7.32;;;;;;;;;;4977401;28;20116;-82
2023/06/08 02:30:10;;;;;;;16.83;7.50;;;12.50;99.90;;;;;;4983435;28;20076;-81
2023/06/08 02:32:37;;;;;;;19.17;7.70;;;;;;;;;;4980471;28;20042;-82
2023/06/08 02:35:03;;;;;;;16.15;7.63;;;;;;;;;;4965949;28;20049;-82
2023/06/08 02:37:30;;;;;;;12.85;7.75;;;;;;;;;;4988748;28;20058;-82
2023/06/08 02:39:57;;;;;;;24.25;7.97;;;;;;;;;;4982715;28;20042;-82
2023/06/08 02:42:23;;;;;;;16.67;8.07;;;;;;;;;;4979394;28;20046;-82
2023/06/08 02:44:49;;;;;;;19.45;8.05;;;;;;;;;;4960488;28;20053;-81
2023/06/08 02:47:16;;;;;;;14.48;7.47;;;;;;;;;;4984064;28;20057;-82
2023/06/08 02:49:42;;;;;;;19.88;8.68;;;;;;;;;;4972948;28;20530;-81
2023/06/08 02:52:08;;;;;;;19.08;7.85;;;;;;;;;;4987161;28;20050;-82
2023/06/08 02:54:34;;;;;;;15.57;7.85;;;;;;;;;;4984679;28;20141;-83
2023/06/08 02:57:00;;;;;;;15.85;8.15;;;;;;;;;;4991728;28;20171;-83
2023/06/08 02:59:27;;;;;;;20.30;8.88;;;;;;;;;;4983865;28;20042;-81
2023/06/08 03:01:53;;;;;;;20.17;9.45;;;;;;;;;;4985723;28;20046;-81
2023/06/08 03:04:20;;;;;;;17.15;9.07;;;;;;;;;;4985161;28;20199;-82
2023/06/08 03:06:46;;;;;;;16.13;8.50;;;;;;;;;;4985069;28;20046;-82
2023/06/08 03:09:13;;;;;;;18.40;9.90;;;;;;;;;;4982372;28;20132;-82
2023/06/08 03:11:39;;;;;;;20.55;9.90;;;;;;;;;;4984562;28;20570;-83
2023/06/08 03:14:05;;;;;;;20.77;11.73;;;;;;;;;;4983309;28;20038;-82
2023/06/08 03:16:31;;;;;;;21.05;10.10;;;;;;;;;;4978008;28;20035;-81
2023/06/08 03:18:58;;;;;;;23.38;9.80;;;;;;;;;;4986996;28;20105;-82
2023/06/08 03:21:28;;;;;;;27.23;10.40;;;;;;;;;;4987828;28;20045;-81
2023/06/08 03:23:54;;;;;;;25.13;10.70;;;;;;;;;;4981731;28;20046;-82
2023/06/08 03:26:21;;;;;;;16.20;9.90;;;;;;;;;;4967073;28;20137;-81
2023/06/08 03:28:47;;;;;;;19.25;10.15;;;;;;;;;;4985667;28;20081;-82
2023/06/08 03:31:13;;;;;;;22.02;10.75;;;;;;;;;;4983365;28;20049;-81
2023/06/08 03:33:40;;;;;;;18.48;11.13;;;;;;;;;;4988989;28;20104;-81
2023/06/08 03:36:06;;;;;;;24.40;11.73;;;;;;;;;;4984811;28;20054;-84
2023/06/08 03:38:32;;;;;;;19.67;10.80;;;;;;;;;;4987036;28;20049;-82
2023/06/08 03:40:59;;;;;;;25.25;11.25;;;;;;;;;;4985974;28;20042;-81
2023/06/08 03:43:25;;;;;;;23.08;12.25;;;;;;;;;;4960907;28;20050;-82
2023/06/08 03:45:51;;;;;;;19.25;11.38;;;;;;;;;;4984527;28;20049;-81
2023/06/08 03:48:17;;;;;;;21.00;11.65;;;;;;;;;;4982366;28;20049;-82
2023/06/08 03:50:43;;;;;;;28.88;12.35;;;;;;;;;;4987892;28;20058;-83
2023/06/08 03:53:11;;;;;;;24.15;12.30;;;;;;;;;;4975696;28;20138;-81
2023/06/08 03:55:37;;;;;;;21.73;11.30;;;;;;;;;;4984069;28;20065;-84
2023/06/08 03:58:03;;;;;;;22.15;12.77;;;;;;;;;;4964125;28;20358;-82
2023/06/08 04:00:29;;;;;;;26.60;12.70;;;;;;;;;;4983201;28;20125;-83
2023/06/08 04:02:56;;;;;;;21.20;12.63;;;;;;;;;;4984380;28;20042;-82
2023/06/08 04:05:22;;;;;;;23.27;12.18;;;;;;;;;;4979633;28;20853;-81
2023/06/08 04:07:50;;;;;;;20.50;11.13;;;;;;;;;;4988854;28;20148;-81
2023/06/08 04:10:16;;;;;;;24.65;12.20;;;;;;;;;;4984721;28;20419;-81
2023/06/08 04:12:43;;;;;;;29.35;12.68;;;;;;;;;;4978354;28;20097;-82
2023/06/08 04:15:10;;;;;;;22.92;13.18;;;12.50;99.90;;;;;;4989404;28;20100;-81
2023/06/08 04:17:40;;;;;;;24.02;12.00;;;;;;;;;;4989241;28;20034;-81
2023/06/08 04:20:07;;;;;;;24.77;12.35;;;12.50;99.90;;;;;;4986165;28;20057;-82
2023/06/08 04:22:33;;;;;;;21.38;13.05;;;;;;;;;;4984643;28;20049;-82
2023/06/08 04:25:00;;;;;;;21.10;12.20;;;;;;;;;;4985733;28;20053;-82
2023/06/08 04:27:26;;;;;;;20.98;11.23;;;;;;;;;;4976630;28;20553;-81
2023/06/08 04:29:52;;;;;;;20.23;11.82;;;12.50;99.90;;;;;;4989098;28;20038;-81
2023/06/08 04:32:18;;;;;;;28.70;11.95;;;;;;;;;;4989207;28;20050;-82
2023/06/08 04:34:44;;;;;;;27.38;10.82;;;;;;;;;;4989355;28;20037;-81
2023/06/08 04:37:10;;;;;;;19.58;11.13;;;;;;;;;;4988729;28;20050;-82
2023/06/08 04:39:36;;;;;;;24.95;10.45;;;;;;;;;;4989492;28;20061;-81
2023/06/08 04:42:02;;;;;;;25.23;12.02;;;;;;;;;;4985926;28;20042;-81
2023/06/08 04:44:31;;;;;;;20.85;10.82;;;;;;;;;;4984658;28;20041;-84
2023/06/08 04:46:58;;;;;;;25.10;12.27;;;;;;;;;;4989043;28;20081;-82
2023/06/08 04:49:31;;;;;;;15.98;9.80;;;;;;;;;;4989366;28;20052;-82
2023/06/08 04:52:00;;;;;;;21.52;10.07;;;12.70;99.90;;;;;;4978830;28;20504;-82
2023/06/08 04:54:29;;;;;;;24.92;10.88;;;;;;;;;;4987516;28;20041;-84
2023/06/08 04:56:59;;;;;;;24.17;10.18;;;;;;;;;;4989273;28;20042;-82
2023/06/08 04:59:28;;;;;;;20.75;9.40;;;;;;;;;;4988491;28;20046;-82
2023/06/08 05:01:54;;;;;;;17.75;10.10;;;;;;;;;;4984946;28;20048;-82
2023/06/08 05:04:21;;;;;;;20.75;9.45;;;;;;;;;;4989746;28;20056;-81
2023/06/08 05:06:47;;;;;;;19.63;9.57;;;;;;;;;;4984529;28;20046;-82
2023/06/08 05:09:13;;;;;;;22.13;10.38;;;;;;;;;;4987364;28;20801;-82
2023/06/08 05:11:39;;;;;;;23.35;10.45;;;;;;;;;;4983026;28;20120;-82
2023/06/08 05:14:10;;;;;;;20.23;9.95;;;;;;;;;;4978507;28;20152;-83
2023/06/08 05:16:37;;;;;;;18.92;9.18;;;;;;;;;;4967535;28;20512;-82
2023/06/08 05:19:03;;;;;;;21.30;9.13;;;;;;;;;;4986508;28;20050;-81
2023/06/08 05:21:29;;;;;;;15.30;8.95;;;;;;;;;;4984306;28;20050;-82
2023/06/08 05:23:55;;;;;;;19.42;8.75;;;;;;;;;;4987079;28;20042;-82
2023/06/08 05:26:21;;;;;;;27.02;10.23;;;;;;;;;;4987767;28;20503;-82
2023/06/08 05:28:47;;;;;;;19.83;8.43;;;;;;;;;;4986389;28;20432;-82
2023/06/08 05:31:13;;;;;;;21.73;9.10;;;;;;;;;;4965859;28;20500;-81
2023/06/08 05:33:39;;;;;;;14.45;7.50;;;;;;;;;;4988755;28;20048;-82
2023/06/08 05:36:06;;;;;;;19.50;8.23;;;;;;;;;;4989145;28;20041;-82
2023/06/08 05:38:32;;;;;;;17.52;7.70;;;13.20;99.90;;;;;;4991871;28;20403;-82
2023/06/08 05:40:58;;;;;;;19.80;7.97;;;;;;;;;;4993110;28;20038;-81
2023/06/08 05:43:24;;;;;;;15.13;7.28;;;;;;;;;;4992752;28;20085;-82
2023/06/08 05:45:50;;;;;;;15.20;7.22;;;;;;;;;;4990551;28;20073;-82
2023/06/08 05:48:16;;;;;;;16.33;7.72;;;13.70;99.90;;;;;;4992706;28;20077;-81
2023/06/08 05:50:42;;;;;;;15.57;7.20;;;;;;;;;;4976129;28;20038;-83
2023/06/08 05:53:07;;;;;;;14.32;7.28;;;14.00;99.90;;;;;;4988990;28;20042;-82
2023/06/08 05:55:33;;;;;;;11.77;6.28;;;;;;;;;;4989977;28;20140;-82
2023/06/08 05:57:59;;;;;;;16.17;6.22;;;;;;;;;;4976381;28;20080;-82
2023/06/08 06:00:25;;;;;;;20.42;7.03;;;;;;;;;;4991937;28;20100;-82
2023/06/08 06:02:51;;;;;;;12.05;5.55;;;;;;;;;;4976014;28;20053;-82
2023/06/08 06:05:17;;;;;;;11.30;5.45;;;;;;;;;;4986970;28;20157;-83
2023/06/08 06:07:43;;;;;;;12.95;4.65;;;17.30;99.90;;;;;;4990055;28;20045;-84
2023/06/08 06:10:09;;;;;;;18.90;5.68;;;17.60;99.90;;;;;;4992581;28;20084;-84
2023/06/08 06:12:35;;;;;;;14.10;6.25;;;;;;;;;;4975841;28;20077;-83
2023/06/08 06:15:01;;;;;;;11.40;4.30;;;;;;;;;;4988371;28;20053;-84
2023/06/08 06:17:27;;;;;;;11.95;4.68;;;18.40;99.90;;;;;;4972034;28;20038;-85
2023/06/08 06:19:52;;;;;;;13.20;4.38;;;18.50;99.90;;;;;;4976184;28;21159;-84
2023/06/08 06:22:18;;;;;;;14.35;5.50;;;18.50;99.90;;;;;;4991960;28;20420;-84
2023/06/08 06:24:44;;;;;;;10.35;4.10;;;18.90;99.90;;;;;;4976083;28;20040;-83
2023/06/08 06:27:11;;;;;;;12.32;3.88;;;19.00;99.90;;;;;;5003967;28;20049;-86
2023/06/08 06:29:36;;;;;;;11.82;3.97;;;19.00;99.90;;;;;;4975980;28;20046;-84
2023/06/08 06:32:02;;;;;;;7.65;3.88;;;19.10;99.90;;;;;;4985309;28;20044;-85
2023/06/08 06:34:28;;;;;;;10.68;3.92;;;19.50;99.90;;;;;;4991875;28;20134;-84
2023/06/08 06:36:55;;;;;;;14.23;4.05;;;;;;;;;;4985131;28;20059;-84
2023/06/08 06:39:21;;;;;;;11.18;3.95;;;;;;;;;;4986061;28;20579;-83
2023/06/08 06:41:46;;;;;;;11.43;4.00;;;18.50;99.90;;;;;;4982209;28;20034;-83
2023/06/08 06:44:12;;;;;;;12.65;4.57;;;;;;;;;;4968329;28;20775;-85
2023/06/08 06:46:38;;;;;;;8.98;4.75;;;;;;;;;;4975769;28;20473;-84
2023/06/08 06:49:04;;;;;;;15.13;6.80;;;;;;;;;;4967663;28;20404;-83
2023/06/08 06:51:30;;;;;;;13.30;4.70;;;17.30;99.90;;;;;;4976156;28;20046;-83
2023/06/08 06:53:56;;;;;;;16.02;5.35;;;;;;;;;;4988233;28;20042;-83
2023/06/08 06:56:22;;;;;;;11.60;4.57;;;17.20;99.90;;;;;;4967385;28;20120;-83
2023/06/08 06:58:47;;;;;;;12.05;5.07;;;17.10;99.90;;;;;;4988819;28;20650;-83
2023/06/08 07:01:16;;;;;;;14.52;5.18;;;16.90;99.90;;;;;;4976438;28;20408;-85
2023/06/08 07:03:46;;;;;;;10.77;4.75;;;16.90;99.90;;;;;;4967286;28;20042;-84
2023/06/08 07:06:12;;;;;;;11.68;4.35;;;;;;;;;;4966260;28;20038;-84
2023/06/08 07:08:38;;;;;;;9.15;4.63;;;16.70;99.90;;;;;;4988910;28;20081;-83
2023/06/08 07:11:04;;;;;;;15.85;5.32;;;16.70;99.90;;;;;;4988371;28;20084;-83
2023/06/08 07:13:30;;;;;;;16.38;5.75;;;16.80;99.90;;;;;;4988283;28;20045;-84
2023/06/08 07:15:57;;;;;;;12.65;5.47;;;16.90;99.90;;;;;;4987943;28;20042;-83
2023/06/08 07:18:23;;;;;;;14.60;4.57;;;16.80;99.90;;;;;;4984435;28;20046;-82
2023/06/08 07:20:49;;;;;;;14.98;4.90;;;16.80;99.90;;;;;;4987756;28;20507;-82
2023/06/08 07:23:14;;;;;;;10.32;4.82;;;16.70;99.90;;;;;;4988052;28;20038;-81
2023/06/08 07:25:40;;;;;;;13.02;4.75;;;;;;;;;;4987604;28;20042;-82
2023/06/08 07:28:08;;;;;;;12.88;4.97;;;16.70;99.90;;;;;;4984154;28;20057;-83
2023/06/08 07:30:34;;;;;;;16.02;5.55;;;;;;;;;;4985434;28;20034;-84
2023/06/08 07:33:00;;;;;;;13.05;5.63;;;16.70;99.90;;;;;;4983332;28;20113;-81
2023/06/08 07:35:26;;;;;;;10.10;4.47;;;;;;;;;;4986691;28;20199;-82
2023/06/08 07:37:53;;;;;;;22.92;6.32;;;16.70;99.90;;;;;;4985083;28;20504;-82
2023/06/08 07:40:19;;;;;;;20.52;6.20;;;;;;;;;;4985223;28;20054;-83
2023/06/08 07:42:45;;;;;;;21.92;7.53;;;16.70;99.90;;;;;;4971067;28;20042;-82
2023/06/08 07:45:12;;;;;;;10.57;5.47;;;;;;;;;;4985979;28;20080;-84
2023/06/08 07:47:38;;;;;;;14.68;5.55;;;16.80;99.90;;;;;;4973763;28;20051;-82
2023/06/08 07:50:06;;;;;;;11.50;5.05;;;16.90;99.90;;;;;;4987284;28;20129;-83
2023/06/08 07:52:32;;;;;;;11.27;5.32;;;;;;;;;;4963954;28;20041;-83
2023/06/08 07:54:58;;;;;;;13.35;6.32;;;;;;;;;;4972737;28;20514;-82
2023/06/08 07:57:23;;;;;;;17.48;5.40;;;16.80;99.90;;;;;;4981203;28;20031;-82
2023/06/08 07:59:49;;;;;;;13.05;5.10;;;;;;;;;;4984380;28;20073;-84
2023/06/08 08:02:15;;;;;;;11.85;5.22;;;16.70;99.90;;;;;;4986541;28;20053;-81
2023/06/08 08:04:41;;;;;;;15.20;5.25;;;;;;;;;;4968718;28;20253;-83
2023/06/08 08:07:07;;;;;;;15.88;5.45;;;;;;;;;;4983801;28;20164;-84
2023/06/08 08:13:12;;;;;;;15.80;5.35;;;17.10;99.90;;;;;;4935616;29;20052;-83
2023/06/08 08:15:50;;;;;;;18.20;5.43;;;16.50;99.90;;;;;;4985267;28;20519;-83
2023/06/08 08:18:48;;;;;;;13.63;5.53;;;17.20;99.90;;;;;;4990876;28;20038;-83
2023/06/08 08:21:14;;;;;;;16.17;5.50;;;;;;;;;;4957368;28;20509;-83
2023/06/08 08:23:45;;;;;;;12.18;4.82;;;;;;;;;;4977434;28;20050;-85
2023/06/08 08:26:12;;;;;;;13.00;5.45;;;;;;;;;;4956076;28;20628;-83
2023/06/08 08:28:44;;;;;;;12.05;5.40;;;;;;;;;;4990218;28;20053;-83
2023/06/08 08:31:11;;;;;;;16.17;5.30;;;;;;;;;;4991792;28;20613;-84
2023/06/08 08:33:59;;;;;;;11.60;4.63;;;17.70;99.90;;;;;;4980805;28;20077;-84
2023/06/08 08:36:45;;;;;;;13.25;5.70;;;19.30;99.90;;;;;;5000496;28;20054;-84
2023/06/08 08:39:34;;;;;;;13.07;5.30;;;17.80;99.90;;;;;;4978436;28;20137;-83
2023/06/08 08:42:07;;;;;;;16.48;4.63;;;17.70;99.90;;;;;;4961047;28;20046;-83
2023/06/08 08:44:33;;;;;;;11.00;4.32;;;;;;;;;;4976822;28;20042;-85
2023/06/08 08:47:02;;;;;;;17.42;5.72;;;17.60;99.90;;;;;;4992516;28;20119;-84
2023/06/08 08:49:32;;;;;;;13.65;4.55;;;17.30;99.90;;;;;;4989313;28;20412;-83
2023/06/08 08:52:01;;;;;;;17.80;5.00;;;17.60;99.90;;;;;;4974032;28;20050;-83
2023/06/08 08:54:38;;;;;;;13.90;5.15;;;;;;;;;;4991488;28;20045;-83
2023/06/08 08:57:06;;;;;;;10.43;4.90;;;;;;;;;;4992155;28;20053;-83
2023/06/08 08:59:33;;;;;;;16.63;5.63;;;17.80;99.90;;;;;;4977447;28;20046;-84
2023/06/08 09:01:59;;;;;;;12.57;5.15;;;;;;;;;;4989921;28;20464;-84
2023/06/08 09:04:26;;;;;;;11.55;4.97;;;;;;;;;;4987723;28;20050;-85
2023/06/08 09:06:52;;;;;;;14.93;4.97;;;;;;;;;;4989374;28;20053;-84
2023/06/08 09:09:18;;;;;;;10.35;4.97;;;;;;;;;;4974972;28;20129;-84
2023/06/08 09:11:58;;;;;;;13.30;4.78;;;18.20;99.90;;;;;;4976688;28;20050;-84
2023/06/08 09:14:24;;;;;;;14.38;5.05;;;;;;;;;;4983038;28;20049;-85
2023/06/08 09:16:51;;;;;;;12.88;4.90;;;;;;;;;;4994144;28;20762;-83
2023/06/08 09:19:17;;;;;;;14.15;4.53;;;;;;;;;;4990413;28;20074;-83
2023/06/08 09:21:44;;;;;;;12.48;4.70;;;;;;;;;;4985565;28;20105;-83
2023/06/08 09:24:16;;;;;;;12.30;4.30;;;18.40;99.90;;;;;;4990244;28;20050;-83
2023/06/08 09:26:56;;;;;;;10.75;4.47;;;18.30;99.90;;;;;;4978158;28;20038;-83
2023/06/08 09:29:39;;;;;;;9.98;4.22;;;18.40;99.90;;;;;;4979273;28;20149;-84
2023/06/08 09:32:12;;;;;;;10.98;4.35;;;18.40;99.90;;;;;;4985968;28;20046;-83
2023/06/08 09:34:55;;;;;;;13.15;4.53;;;18.60;99.90;;;;;;4978371;28;20889;-83
2023/06/08 09:37:36;;;;;;;8.93;4.35;;;18.70;99.90;;;;;;4985596;28;20050;-83
2023/06/08 09:40:09;;;;;;;14.57;4.65;;;18.70;99.90;;;;;;4989106;28;20078;-83
2023/06/08 09:42:42;;;;;;;13.93;5.30;;;18.70;99.90;;;;;;4984829;28;20840;-84
2023/06/08 09:45:10;;;;;;;16.42;4.40;;;19.00;99.90;;;;;;4987548;28;20157;-83
2023/06/08 09:47:36;;;;;;;11.85;4.28;;;;;;;;;;4978331;28;20046;-84
2023/06/08 09:50:02;;;;;;;11.43;3.95;;;;;;;;;;4988987;28;20496;-84
2023/06/08 09:52:31;;;;;;;14.68;4.68;;;18.90;99.90;;;;;;4975121;28;20046;-83
2023/06/08 09:54:58;;;;;;;22.95;4.63;;;;;;;;;;4994040;28;20046;-84
2023/06/08 09:57:27;;;;;;;19.15;4.90;;;18.90;99.90;;;;;;4981782;28;20509;-83
2023/06/08 10:00:17;;;;;;;16.65;4.75;;;19.00;99.90;;;;;;4977995;28;20077;-83
2023/06/08 10:02:53;;;;;;;13.60;5.03;;;19.10;99.90;;;;;;4992313;28;20038;-83
2023/06/08 10:05:22;;;;;;;14.73;4.80;;;19.10;99.90;;;;;;4980336;28;20663;-84
2023/06/08 10:07:51;;;;;;;9.90;4.28;;;19.20;99.90;;;;;;4992810;28;20492;-84
2023/06/08 10:10:29;;;;;;;14.43;4.45;;;19.00;99.90;;;;;;4993595;28;20046;-85
2023/06/08 10:12:57;;;;;;;14.77;4.47;;;19.50;99.90;;;;;;4972682;28;20727;-84
2023/06/08 10:15:23;;;;;;;10.60;4.05;;;;;;;;;;4977192;28;20089;-84
2023/06/08 10:17:50;;;;;;;15.32;4.40;;;19.40;99.90;;;;;;4974828;28;20057;-84
2023/06/08 10:20:27;;;;;;;15.57;4.93;;;19.50;99.90;;;;;;4983202;28;20050;-84
2023/06/08 10:23:17;;;;;;;14.07;5.10;;;20.10;99.90;;;;;;4985440;28;20069;-82
2023/06/08 10:26:00;;;;;;;8.80;4.32;;;;;;;;;;4959122;28;20100;-82
2023/06/08 10:28:26;;;;;;;12.32;4.45;;;;;;;;;;4979116;28;20108;-82
2023/06/08 10:31:22;;;;;;;14.10;5.68;;;19.70;99.90;;;;;;4990741;28;20134;-85
2023/06/08 10:33:48;;;;;;;11.57;3.85;;;;;;;;;;4970709;28;20415;-83
2023/06/08 10:36:19;;;;;;;10.45;4.10;;;;;;;;;;5004504;28;20591;-82
2023/06/08 10:38:56;;;;;;;12.20;3.88;;;19.80;99.90;;;;;;4971744;28;20050;-83
2023/06/08 10:41:52;;;;;;;13.43;4.78;;;19.90;99.90;;;;;;4969249;28;20042;-83
2023/06/08 10:44:40;;;;;;;16.45;4.32;;;20.00;99.90;;;;;;4967876;28;20399;-83
2023/06/08 10:47:12;;;;;;;11.73;4.35;;;19.90;99.90;;;;;;4973425;28;20115;-82
2023/06/08 10:49:41;;;;;;;14.80;4.60;;;19.70;99.90;;;;;;4969604;28;20065;-82
2023/06/08 10:52:28;;;;;;;15.75;4.60;;;20.20;99.90;;;;;;4986537;28;20049;-83
2023/06/08 10:55:11;;;;;;;13.63;5.60;;;20.10;99.90;;;;;;4983034;28;20069;-83
2023/06/08 10:57:50;;;;;;;14.50;5.90;;;20.10;99.90;;;;;;4998001;28;20467;-85
2023/06/08 11:00:25;;;;;;;9.73;4.88;;;20.20;99.90;;;;;;4981508;28;20043;-83
2023/06/08 11:03:00;;;;;;;10.43;4.32;;;20.40;99.90;;;;;;4982684;28;20121;-82
2023/06/08 11:05:35;;;;;;;11.52;4.65;;;20.10;99.90;;;;;;4987823;28;20730;-83
2023/06/08 11:08:03;;;;;;;16.13;4.88;;;20.20;99.90;;;;;;4980761;28;20097;-83
2023/06/08 11:10:33;;;;;;;17.23;4.85;;;;;;;;;;4977306;28;20064;-83
2023/06/08 11:13:10;;;;;;;13.95;4.90;;;20.40;99.90;;;;;;4980367;28;20038;-83
2023/06/08 11:15:37;;;;;;;11.27;4.10;;;20.50;99.90;;;;;;4976105;28;20133;-84
2023/06/08 11:18:04;;;;;;;15.23;5.40;;;;;;;;;;4993323;28;20041;-83
2023/06/08 11:20:32;;;;;;;21.55;5.30;;;20.50;99.90;;;;;;4993476;28;20116;-83
2023/06/08 11:23:02;;;;;;;18.05;4.82;;;;;;;;;;4987081;28;20128;-83
2023/06/08 11:25:29;;;;;;;15.70;5.18;;;;;;;;;;4972921;28;20053;-85
2023/06/08 11:27:57;;;;;;;12.13;4.30;;;;;;;;;;4973308;28;20042;-83
2023/06/08 11:30:37;;;;;;;12.95;4.07;;;20.60;99.90;;;;;;4987745;28;20066;-85
2023/06/08 11:33:14;;;;;;;17.88;4.32;;;20.70;99.90;;;;;;5008311;28;20085;-85
2023/06/08 11:35:40;;;;;;;11.87;4.77;;;;;;;;;;4975189;28;20027;-83
2023/06/08 11:38:07;;;;;;;9.38;4.15;;;;;;;;;;4970212;28;20543;-83
2023/06/08 11:40:34;;;;;;;10.63;3.70;;;;;;;;;;4973988;28;20089;-83
2023/06/08 11:43:00;;;;;;;13.65;4.05;;;;;;;;;;4972399;28;20041;-83
2023/06/08 11:45:28;;;;;;;12.82;4.97;;;;;;;;;;4989588;28;20664;-83
2023/06/08 11:47:54;;;;;;;13.02;4.30;;;;;;;;;;4983794;28;20050;-83
2023/06/08 11:50:20;;;;;;;12.30;4.50;;;;;;;;;;4968771;28;20045;-83
2023/06/08 11:52:48;;;;;;;12.63;4.63;;;19.40;99.90;;;;;;4976064;28;20057;-83
2023/06/08 11:55:19;;;;;;;9.60;3.95;;;20.80;99.90;;;;;;4989138;28;20058;-83
2023/06/08 11:58:02;;;;;;;16.75;4.43;;;20.60;99.90;;;;;;4967633;28;20500;-83
2023/06/08 12:00:33;;;;;;;16.42;4.30;;;21.00;99.90;;;;;;4973545;28;20046;-83
2023/06/08 12:03:02;;;;;;;15.25;5.60;;;20.70;99.90;;;;;;4974373;28;20124;-83
2023/06/08 12:05:31;;;;;;;17.92;4.72;;;21.10;99.90;;;;;;4971280;28;20048;-86
2023/06/08 12:08:02;;;;;;;9.43;5.25;;;20.90;99.90;;;;;;4968855;28;20101;-83
2023/06/08 12:10:38;;;;;;;10.38;4.30;;;21.00;99.90;;;;;;4988520;28;20057;-83
2023/06/08 12:13:09;;;;;;;12.82;4.60;;;21.10;99.90;;;;;;4975379;28;20046;-82
2023/06/08 12:15:41;;;;;;;8.13;3.90;;;21.00;99.90;;;;;;4986354;28;20052;-83
2023/06/08 12:18:24;;;;;;;10.32;3.83;;;20.80;99.90;;;;;;4989916;28;20053;-84
2023/06/08 12:21:33;;;;;;;12.15;4.00;;;21.00;99.90;;;;;;4972032;28;20114;-85
2023/06/08 12:24:59;;;;;;;9.57;4.05;;;21.00;99.90;;;;;;4983165;28;20499;-84
2023/06/08 12:27:49;;;;;;;13.18;3.17;;;;;;;;;;4928513;29;20563;-83
2023/06/08 12:30:15;;;;;;;12.00;3.80;;;;;;;;;;4913382;29;20063;-82
2023/06/08 12:32:41;;;;;;;9.20;3.92;;;21.10;99.90;;;;;;4926129;29;20090;-84
2023/06/08 12:35:07;;;;;;;10.18;3.80;;;;;;;;;;4928425;28;20038;-83
2023/06/08 12:37:33;;;;;;;10.43;3.53;;;;;;;;;;4911125;29;20079;-83
2023/06/08 12:40:00;;;;;;;10.07;3.40;;;;;;;;;;4911191;29;20222;-84
2023/06/08 12:42:26;;;;;;;9.57;3.88;;;21.20;99.90;;;;;;4906280;29;20641;-84
2023/06/08 12:44:53;;;;;;;13.73;4.05;;;;;;;;;;4900690;29;20095;-84
2023/06/08 12:47:19;;;;;;;14.82;4.50;;;21.10;99.90;;;;;;4922624;29;20051;-83
2023/06/08 12:49:45;;;;;;;12.73;3.85;;;21.20;99.90;;;;;;4907402;29;20055;-83
2023/06/08 12:52:11;;;;;;;11.70;4.03;;;21.20;99.90;;;;;;4913543;29;20086;-83
2023/06/08 12:54:37;;;;;;;7.63;3.20;;;21.20;99.90;;;;;;4907942;29;20538;-83
2023/06/08 12:57:03;;;;;;;12.15;3.00;;;;;;;;;;4895038;29;20043;-84
2023/06/08 12:59:29;;;;;;;6.75;2.65;;;;;;;;;;4910195;29;20083;-84
2023/06/08 13:01:56;;;;;;;11.07;4.38;;;;;;;;;;4885510;29;20478;-84
2023/06/08 13:04:22;;;;;;;10.45;3.88;;;21.30;99.90;;;;;;4914594;28;20587;-83
2023/06/08 13:06:48;;;;;;;9.35;3.22;;;;;;;;;;4960824;28;20096;-85
2023/06/08 13:09:14;;;;;;;6.80;2.95;;;21.40;99.90;;;;;;4963098;28;20412;-84
2023/06/08 13:11:40;;;;;;;12.07;3.97;;;;;;;;;;4959213;28;20046;-85
2023/06/08 13:14:06;;;;;;;6.88;3.65;;;21.40;99.90;;;;;;4986461;28;20068;-84
2023/06/08 13:16:32;;;;;;;12.82;3.92;;;;;;;;;;4952255;28;20034;-85
2023/06/08 13:18:58;;;;;;;8.43;3.88;;;;;;;;;;4954340;28;20669;-84
2023/06/08 13:21:24;;;;;;;10.48;2.92;;;21.40;99.90;;;;;;4958479;28;20074;-83
2023/06/08 13:23:50;;;;;;;8.77;3.28;;;;;;;;;;4965697;28;20096;-84
2023/06/08 13:26:17;;;;;;;6.97;3.47;;;21.40;99.90;;;;;;4961982;28;20197;-84
2023/06/08 13:28:44;;;;;;;11.48;3.55;;;21.40;99.90;;;;;;4961709;28;20042;-84
2023/06/08 13:31:09;;;;;;;11.05;3.33;;;21.40;99.90;;;;;;4962727;28;20038;-84
2023/06/08 13:33:35;;;;;;;10.77;3.15;;;;;;;;;;4948994;28;20047;-84
2023/06/08 13:36:01;;;;;;;7.72;3.40;;;21.40;99.90;;;;;;4948289;28;20145;-84
2023/06/08 13:38:28;;;;;;;10.48;3.55;;;21.40;99.90;;;;;;4982055;28;20552;-83
2023/06/08 13:40:55;;;;;;;11.65;3.13;;;;;;;;;;4985182;28;20038;-83
2023/06/08 13:43:21;;;;;;;8.82;3.17;;;;;;;;;;4981124;28;20112;-83
2023/06/08 13:45:46;;;;;;;12.43;3.63;;;21.40;99.90;;;;;;4983919;28;20054;-83
2023/06/08 13:48:12;;;;;;;9.65;3.08;;;21.40;99.90;;;;;;4982896;28;20042;-84
2023/06/08 13:50:38;;;;;;;10.57;3.50;;;21.50;99.90;;;;;;4969322;28;20129;-84
2023/06/08 13:53:04;;;;;;;10.88;2.95;;;;;;;;;;4981462;28;20144;-86
2023/06/08 13:55:30;;;;;;;11.52;3.60;;;;;;;;;;4970882;28;20389;-84